Aérodrome :
LOGIN :

S'inscrire | Disclaimer

   EN    FR    IT 

 










Légende :    VFR   VFR Marginal   IFR   IFR Intensif   IFR Très Intensif
Visi : 
Plafond : 
>= 8 km
>= 3000ft
5 à 8 km
1000 à 3000 ft
1500m à 5 km
500 à 1000 ft
800 à 1500m
200 à 500 ft
< 800m
< 200 ft
Symboles :   Orages  Brouillard  Fortes neiges  Fortes précipitations  Vent > 20 kt
SIGMETs :   Divers  Orages  Givrage  Turbulence  Onde Orograph.  Cendres Volcan.






- Altitude de l'aérodrome : 459 ft
- Code IATA : CER


LFRC - Cherbourg / Maupertus

DERNIER METAR :
  • 141100Z AUTO 30008KT 270V330 9999 OVC006 16/14 Q1018 BECMG BKN030

METARs EXPIRÉS :
  • 141030Z AUTO 30009KT 270V330 9999 OVC006 16/15 Q1018 BECMG BKN030
  • 141000Z AUTO 30007KT 280V340 9999 OVC006 16/15 Q1018 TEMPO 1500 BR BECMG BKN030
  • 140930Z AUTO 30006KT 270V330 9999 OVC005 16/15 Q1018 TEMPO 1500 BR BECMG BKN030
  • 140900Z AUTO 30008KT 9999 OVC005 15/15 Q1018 TEMPO 1500 BR
  • 140830Z AUTO 30007KT 9999 OVC006 15/15 Q1018 TEMPO 1500 BR BKN002

TAF TAF LFRC
Valide du 14 à 09h jusqu'au 14 à 18h UTC


140800Z 1409/1418 30010KT 9999 OVC006
TEMPO 1409/1411 1500 BR BKN002
BECMG 1411/1413 BKN030
PROB30
TEMPO 1413/1416 BKN009



MET'MAP, la Météo Aéronautique d'un coup d'oeil ! - Copyright ORBIFLY Décembre 2007 - Disclaimer

ORBIFLY MET'MAP TEAM :

Programmation & Développement : Alexandra Zaïnal
Sur une idée originale de : Baudouin d'Aumeries
Assistance à la programmation : Marc-Olivier Méhu
Soutien technique & logistique : Manuel Goepfert

Contact : metmap@orbifly.com




SOURCES & CREDITS :

   NOAA